FNG200 EFHK-EFHK
Flight info
| Callsign | FNG200 |
|---|---|
| Flight time | 0h 15m |
| Altitude | 4000 |
| Route | HAGIP EFHY KATAJAJALUOTO HAGIP |
| Aircraft | B412/L-SDFZ/C |
Departure
| Time | 2026-04-26 12:27 |
|---|---|
| Airport | Helsinki Vantaa Airport (EFHK) |
Arrival
| Time | 2026-04-26 12:42 |
|---|---|
| Airport | Helsinki Vantaa Airport (EFHK) |
| Time | Latitude | Longitude | Altitude | Speed | Heading |
|---|---|---|---|---|---|
| 2026-04-26 12:23 | 60.31545 | 24.93205 | 186 ft | 0 kts | 305° |
| 2026-04-26 12:26 | 60.31567 | 24.93167 | 251 ft | 19 kts | 319° |
| 2026-04-26 12:26 | 60.31805 | 24.92676 | 453 ft | 78 kts | 314° |
| 2026-04-26 12:26 | 60.32251 | 24.91770 | 645 ft | 101 kts | 322° |
| 2026-04-26 12:27 | 60.32856 | 24.90857 | 714 ft | 119 kts | 340° |
| 2026-04-26 12:27 | 60.33726 | 24.91143 | 891 ft | 144 kts | 27° |
| 2026-04-26 12:27 | 60.34396 | 24.92822 | 1055 ft | 163 kts | 58° |
| 2026-04-26 12:27 | 60.34616 | 24.95125 | 1322 ft | 174 kts | 85° |
| 2026-04-26 12:28 | 60.34263 | 24.97598 | 1367 ft | 195 kts | 113° |
| 2026-04-26 12:28 | 60.33399 | 24.99791 | 1332 ft | 207 kts | 141° |
| 2026-04-26 12:28 | 60.32122 | 25.01219 | 1288 ft | 210 kts | 165° |
| 2026-04-26 12:28 | 60.30697 | 25.01685 | 1261 ft | 207 kts | 188° |
| 2026-04-26 12:29 | 60.29302 | 25.01124 | 1248 ft | 200 kts | 211° |
| 2026-04-26 12:29 | 60.28064 | 24.99883 | 1263 ft | 193 kts | 224° |
| 2026-04-26 12:29 | 60.25717 | 24.97034 | 1078 ft | 199 kts | 222° |
| 2026-04-26 12:30 | 60.24555 | 24.95553 | 976 ft | 196 kts | 226° |
| 2026-04-26 12:30 | 60.23479 | 24.93960 | 1043 ft | 186 kts | 232° |
| 2026-04-26 12:30 | 60.22542 | 24.92309 | 1372 ft | 177 kts | 239° |
| 2026-04-26 12:31 | 60.20525 | 24.88917 | 1414 ft | 203 kts | 219° |
| 2026-04-26 12:31 | 60.19213 | 24.87789 | 1356 ft | 207 kts | 216° |
| 2026-04-26 12:31 | 60.17940 | 24.86572 | 1467 ft | 199 kts | 219° |
| 2026-04-26 12:31 | 60.16735 | 24.85274 | 1571 ft | 197 kts | 224° |
| 2026-04-26 12:32 | 60.15555 | 24.83822 | 1616 ft | 200 kts | 224° |
| 2026-04-26 12:32 | 60.14388 | 24.82316 | 1689 ft | 198 kts | 230° |
| 2026-04-26 12:32 | 60.12151 | 24.78874 | 1524 ft | 206 kts | 224° |
| 2026-04-26 12:33 | 60.10817 | 24.77707 | 1490 ft | 209 kts | 212° |
| 2026-04-26 12:33 | 60.09433 | 24.76835 | 1593 ft | 206 kts | 206° |
| 2026-04-26 12:33 | 60.07993 | 24.76410 | 1645 ft | 210 kts | 192° |
| 2026-04-26 12:33 | 60.06493 | 24.76525 | 1683 ft | 214 kts | 185° |
| 2026-04-26 12:34 | 60.04972 | 24.76622 | 1597 ft | 218 kts | 190° |
| 2026-04-26 12:34 | 60.03479 | 24.76140 | 1392 ft | 219 kts | 204° |
| 2026-04-26 12:34 | 60.02040 | 24.75274 | 757 ft | 215 kts | 198° |
| 2026-04-26 12:34 | 60.00761 | 24.74487 | 340 ft | 157 kts | 220° |
| 2026-04-26 12:35 | 60.00380 | 24.73188 | 295 ft | 78 kts | 327° |
| 2026-04-26 12:35 | 60.00706 | 24.72783 | 311 ft | 28 kts | 328° |
| 2026-04-26 12:35 | 60.00734 | 24.72640 | 115 ft | 13 kts | 68° |
| 2026-04-26 12:35 | 60.00740 | 24.72698 | 55 ft | 11 kts | 48° |
| 2026-04-26 12:36 | 60.00754 | 24.72738 | 6 ft | 1 kts | 4° |
| 2026-04-26 12:36 | 60.00758 | 24.72734 | 5 ft | 0 kts | 12° |
| 2026-04-26 12:37 | 60.00915 | 24.72755 | 68 ft | 65 kts | 360° |
| 2026-04-26 12:37 | 60.01560 | 24.72686 | 274 ft | 112 kts | 2° |
| 2026-04-26 12:37 | 60.02410 | 24.72756 | 509 ft | 131 kts | 6° |
| 2026-04-26 12:37 | 60.03343 | 24.72982 | 726 ft | 136 kts | 10° |
| 2026-04-26 12:38 | 60.04288 | 24.73336 | 898 ft | 138 kts | 13° |
| 2026-04-26 12:38 | 60.05213 | 24.73893 | 1097 ft | 139 kts | 21° |
| 2026-04-26 12:38 | 60.06102 | 24.74812 | 1143 ft | 147 kts | 27° |
| 2026-04-26 12:38 | 60.06974 | 24.75847 | 1244 ft | 147 kts | 26° |
| 2026-04-26 12:39 | 60.07934 | 24.76299 | 1312 ft | 138 kts | 358° |
| 2026-04-26 12:39 | 60.08922 | 24.76127 | 1333 ft | 141 kts | 1° |
| 2026-04-26 12:39 | 60.09925 | 24.76276 | 1296 ft | 142 kts | 7° |
| 2026-04-26 12:39 | 60.10920 | 24.76759 | 1107 ft | 153 kts | 18° |
| 2026-04-26 12:40 | 60.11897 | 24.77540 | 1168 ft | 148 kts | 23° |
| 2026-04-26 12:40 | 60.12817 | 24.78467 | 1264 ft | 147 kts | 27° |
| 2026-04-26 12:40 | 60.13716 | 24.79505 | 1275 ft | 149 kts | 28° |
| 2026-04-26 12:40 | 60.14560 | 24.80618 | 1335 ft | 150 kts | 32° |
| 2026-04-26 12:41 | 60.15403 | 24.81871 | 1401 ft | 151 kts | 33° |
| 2026-04-26 12:41 | 60.16239 | 24.83461 | 1072 ft | 170 kts | 40° |
| 2026-04-26 12:41 | 60.17015 | 24.85285 | 825 ft | 167 kts | 45° |
| 2026-04-26 12:41 | 60.17643 | 24.87055 | 671 ft | 141 kts | 46° |
| 2026-04-26 12:42 | 60.18137 | 24.88582 | 672 ft | 115 kts | 44° |
| 2026-04-26 12:42 | 60.18554 | 24.89818 | 712 ft | 98 kts | 39° |
| 2026-04-26 12:42 | 60.19029 | 24.90524 | 585 ft | 99 kts | 54° |
| 2026-04-26 12:42 | 60.18837 | 24.90877 | 366 ft | 25 kts | 330° |
| 2026-04-26 12:43 | 60.18886 | 24.90804 | 274 ft | 8 kts | 333° |
| 2026-04-26 12:43 | 60.18892 | 24.90778 | 222 ft | 3 kts | 344° |
| 2026-04-26 12:43 | 60.18896 | 24.90772 | 185 ft | 0 kts | 313° |
| 2026-04-26 12:44 | 60.18991 | 24.90694 | 258 ft | 47 kts | 337° |
| 2026-04-26 12:45 | 60.19513 | 24.90451 | 496 ft | 104 kts | 2° |
| 2026-04-26 12:45 | 60.20295 | 24.91117 | 776 ft | 138 kts | 30° |
| 2026-04-26 12:45 | 60.21074 | 24.92367 | 988 ft | 149 kts | 39° |
| 2026-04-26 12:45 | 60.21872 | 24.93860 | 881 ft | 164 kts | 34° |
| 2026-04-26 12:46 | 60.22919 | 24.94428 | 713 ft | 160 kts | 2° |
| 2026-04-26 12:46 | 60.24021 | 24.94793 | 604 ft | 157 kts | 8° |
| 2026-04-26 12:46 | 60.25091 | 24.94943 | 604 ft | 155 kts | 4° |
| 2026-04-26 12:46 | 60.26044 | 24.96147 | 487 ft | 172 kts | 44° |
| 2026-04-26 12:47 | 60.26902 | 24.97380 | 634 ft | 155 kts | 20° |
| 2026-04-26 12:47 | 60.27933 | 24.97984 | 726 ft | 154 kts | 14° |
| 2026-04-26 12:47 | 60.28933 | 24.98450 | 678 ft | 147 kts | 8° |
| 2026-04-26 12:47 | 60.29857 | 24.98984 | 595 ft | 125 kts | 9° |
| 2026-04-26 12:48 | 60.30502 | 24.99393 | 566 ft | 77 kts | 345° |
| 2026-04-26 12:48 | 60.30914 | 24.99051 | 385 ft | 51 kts | 327° |
| 2026-04-26 12:48 | 60.31123 | 24.98854 | 250 ft | 25 kts | 326° |
| 2026-04-26 12:48 | 60.31195 | 24.98781 | 188 ft | 3 kts | 341° |
| 2026-04-26 12:49 | 60.31196 | 24.98778 | 186 ft | 0 kts | 333° |